Main page
METAR-TAF:

METAR-TAF

Airports :

Mécheria Airport

Mécheria, Algeria

latitude: 34-56N, longitude: 000-26W, elevation: 1149 m

Current weather observation

The report was made 1 hour and 12 minutes ago, at 03:00 UTC
Calm wind
Temperature 27°C
Humidity 51%
Pressure 1022 hPa
Visibility: 7000 m
Scattered clouds at a height of 3000 ft
Scattered clouds at a height of 10000 ft

METAR: DAAY 200300Z 00000KT 7000 SCT030 SCT100 27/16 Q1022

Time: 05:12 (04:12 UTC)

Forecast

The report was made 5 hours and 12 minutes ago, at 23:00 UTC
Forecast valid from 20 at 00 UTC to 20 at 09 UTC
Wind 2 kt from variable directions
Visibility: 6000 m
Few clouds at a height of 2600 ft, Cumulonimbus.
Scattered clouds at a height of 3000 ft, Towering cumulus.
Becoming
from 20 at 01 UTC to 20 at 03 UTC
Visibility 10 km or more
Few clouds at a height of 2600 ft
Scattered clouds at a height of 10000 ft

TAF: DAAY 192300Z 2000/2009 VRB02KT 6000 FEW026CB SCT030TCU BECMG 2001/2003 9999 FEW026 SCT100

Weather observations and forecasts of more than 4000 airports (METAR and TAF reports).

The available stations are represented by yellow and red dots on the map.

Hover mouse over dot to see the name of the station.

Then click to see weather observations and forecasts.

To change the map : click on the green buttons with a black cross to zoom in, on the green button with a dash to zoom out, or on the green arrows for adjacent maps.


METAR-TAF: